Time;durP1;ratioP1;P1;durP2;ratioP2;P2;SDS_P1;SDS_P2;PMS_P1;PMS_P2;Temp;Humidity;BMP_temperature;BMP_pressure;BME280_temperature;BME280_humidity;BME280_pressure;Samples;Min_cycle;Max_cycle;Signal;HPM_P1;HPM_P2
2024/02/01 00:01:52;;;;;;;4.43;2.13;;;;;;;2.83;95.36;93701.50;4859175;29;20042;-77
2024/02/01 00:04:18;;;;;;;4.03;2.22;;;;;;;2.85;94.57;93703.88;4826791;29;20510;-77
2024/02/01 00:06:50;;;;;;;4.35;2.10;;;;;;;2.85;94.43;93703.88;4858231;29;20049;-77
2024/02/01 00:09:16;;;;;;;5.45;2.10;;;;;;;2.85;94.61;93699.50;4842402;29;20033;-77
2024/02/01 00:11:42;;;;;;;3.47;1.80;;;;;;;2.82;94.51;93696.56;4841801;29;20152;-76
2024/02/01 00:14:08;;;;;;;3.65;1.90;;;;;;;2.82;93.93;93688.78;4841852;29;20139;-76
2024/02/01 00:16:36;;;;;;;3.25;1.92;;;;;;;2.84;93.94;93697.13;4857792;29;20501;-77
2024/02/01 00:19:02;;;;;;;3.85;2.10;;;;;;;2.83;93.84;93690.38;4857390;29;20090;-78
2024/02/01 00:21:28;;;;;;;4.18;2.00;;;;;;;2.83;93.60;93687.78;4858166;29;20295;-77
2024/02/01 00:23:53;;;;;;;3.88;2.00;;;;;;;2.84;93.36;93686.78;4858045;29;20070;-77
2024/02/01 00:26:20;;;;;;;4.75;2.10;;;;;;;2.84;93.86;93686.78;4857668;29;20033;-77
2024/02/01 00:28:46;;;;;;;4.13;2.28;;;;;;;2.81;93.86;93672.47;4857343;29;20061;-77
2024/02/01 00:31:12;;;;;;;3.83;1.90;;;;;;;2.86;93.23;93674.41;4856935;29;20532;-77
2024/02/01 00:33:37;;;;;;;3.60;1.90;;;;;;;2.87;92.92;93676.03;4840804;29;20045;-78
2024/02/01 00:36:03;;;;;;;3.70;1.85;;;;;;;2.88;92.78;93678.41;4857218;29;20029;-76
2024/02/01 00:38:29;;;;;;;4.43;2.00;;;;;;;2.90;93.29;93670.41;4857578;29;20413;-77
2024/02/01 00:40:54;;;;;;;3.28;1.92;;;;;;;2.91;92.98;93677.19;4856769;29;20048;-77
2024/02/01 00:43:20;;;;;;;4.22;1.95;;;;;;;2.90;93.43;93675.59;4857452;29;20082;-77
2024/02/01 00:45:45;;;;;;;4.97;1.90;;;;;;;2.89;94.26;93666.25;4840541;29;20026;-76
2024/02/01 00:48:11;;;;;;;3.28;1.58;;;;;;;2.88;94.23;93667.25;4857755;29;20435;-78
2024/02/01 00:50:36;;;;;;;4.32;2.00;;;;;;;2.87;94.63;93670.84;4857227;29;20081;-77
2024/02/01 00:53:02;;;;;;;4.00;1.77;;;;;;;2.84;95.03;93660.94;4840524;29;20052;-77
2024/02/01 00:55:27;;;;;;;6.10;2.00;;;;;;;2.84;94.63;93661.72;4839730;29;20042;-77
2024/02/01 00:57:53;;;;;;;3.05;1.88;;;;;;;2.84;93.70;93661.72;4841065;29;20453;-76
2024/02/01 01:00:18;;;;;;;3.90;1.65;;;;;;;2.85;93.44;93658.13;4839982;29;20033;-76
2024/02/01 01:02:44;;;;;;;3.38;1.90;;;;;;;2.84;93.88;93655.75;4856404;29;20046;-75
2024/02/01 01:05:10;;;;;;;3.85;2.08;;;;;;;2.86;93.94;93657.13;4856729;29;20036;-76
2024/02/01 01:07:35;;;;;;;5.32;2.00;;;;;;;2.82;95.50;93658.53;4839788;29;20437;-78
2024/02/01 01:10:01;;;;;;;5.57;2.00;;;;;;;2.83;95.65;93659.34;4840123;29;20044;-78
2024/02/01 01:12:27;;;;;;;6.57;1.80;;;;;;;2.80;94.99;93663.13;4855999;29;20056;-77
2024/02/01 01:14:52;;;;;;;4.03;1.75;;;;;;;2.80;94.71;93652.00;4857073;29;20042;-76
2024/02/01 01:17:18;;;;;;;4.80;2.00;;;;;;;2.80;93.92;93644.25;4857212;29;20048;-77
2024/02/01 01:19:43;;;;;;;3.85;1.63;;;;;;;2.81;93.58;93643.22;4840250;29;20037;-76
2024/02/01 01:22:09;;;;;;;3.88;2.10;;;;;;;2.80;93.59;93641.66;4856291;29;20536;-77
2024/02/01 01:24:35;;;;;;;3.50;1.90;;;;;;;2.79;93.26;93630.53;4856365;29;20470;-77
2024/02/01 01:27:01;;;;;;;4.00;2.10;;;;;;;2.79;93.08;93632.31;4824901;29;20041;-76
2024/02/01 01:29:26;;;;;;;6.25;2.00;;;;;;;2.79;93.43;93632.31;4840150;29;20402;-77
2024/02/01 01:31:52;;;;;;;3.97;2.00;;;;;;;2.79;93.05;93627.94;4839587;29;20037;-76
2024/02/01 01:34:18;;;;;;;4.03;2.00;;;;;;;2.76;93.67;93612.81;4856828;29;20566;-75
2024/02/01 01:36:43;;;;;;;3.58;1.80;;;;;;;2.79;93.91;93615.00;4857403;29;20065;-77
2024/02/01 01:39:11;;;;;;;4.45;1.90;;;;;;;2.75;94.03;93610.44;4840907;29;20037;-77
2024/02/01 01:41:43;;;;;;;3.50;1.73;;;;;;;2.71;94.38;93605.69;4857016;29;20570;-78
2024/02/01 01:44:09;;;;;;;2.53;1.58;;;;;;;2.70;94.09;93595.56;4856320;29;20045;-77
2024/02/01 01:46:34;;;;;;;5.10;1.95;;;;;;;2.70;94.82;93598.16;4839861;29;20041;-76
2024/02/01 01:49:00;;;;;;;3.67;1.88;;;;;;;2.68;94.71;93590.63;4839787;29;20048;-77
2024/02/01 01:51:26;;;;;;;5.53;2.20;;;;;;;2.69;94.57;93592.19;4839942;29;20395;-77
2024/02/01 01:53:53;;;;;;;4.88;2.30;;;;;;;2.67;94.90;93583.06;4856583;29;20101;-78
2024/02/01 01:56:19;;;;;;;4.85;2.10;;;;;;;2.67;95.79;93583.06;4857151;29;20057;-78
2024/02/01 01:58:46;;;;;;;4.63;1.95;;;;;;;2.66;95.35;93582.28;4841339;29;20125;-76
2024/02/01 02:01:12;;;;;;;3.75;2.10;;;;;;;2.66;94.39;93574.53;4842637;29;20094;-78
2024/02/01 02:03:38;;;;;;;3.75;2.00;;;;;;;2.63;93.64;93566.38;4858678;29;20387;-78
2024/02/01 02:06:05;;;;;;;4.90;2.15;;;;;;;2.71;93.25;93568.72;4861731;29;20044;-78
2024/02/01 02:08:30;;;;;;;5.30;1.95;;;;;;;2.72;93.18;93570.28;4845767;29;20242;-77
2024/02/01 02:10:56;;;;;;;3.67;1.90;;;;;;;2.74;93.11;93562.31;4861163;29;20088;-78
2024/02/01 02:13:22;;;;;;;4.43;2.42;;;;;;;2.71;93.12;93564.34;4844921;29;20049;-78
2024/02/01 02:15:48;;;;;;;3.72;2.10;;;;;;;2.76;92.94;93568.09;4861526;29;20120;-77
2024/02/01 02:18:13;;;;;;;3.22;1.85;;;;;;;2.76;92.50;93570.66;4844769;29;20038;-79
2024/02/01 02:20:41;;;;;;;5.30;2.00;;;;;;;2.77;92.53;93567.88;4844751;29;20066;-78
2024/02/01 02:23:08;;;;;;;3.88;1.98;;;;;;;2.75;92.53;93553.56;4845087;29;20041;-78
2024/02/01 02:25:33;;;;;;;3.83;1.90;;;;;;;2.72;93.18;93549.59;4860187;29;20053;-78
2024/02/01 02:27:59;;;;;;;6.25;2.30;;;;;;;2.75;92.91;93540.63;4860092;29;20084;-77
2024/02/01 02:30:24;;;;;;;4.00;2.10;;;;;;;2.73;92.73;93546.03;4827353;29;20030;-78
2024/02/01 02:32:50;;;;;;;4.13;2.17;;;;;;;2.73;93.53;93551.19;4843263;29;20048;-78
2024/02/01 02:35:19;;;;;;;5.80;2.00;;;;;;;2.71;93.30;93542.88;4860077;29;20081;-77
2024/02/01 02:37:54;;;;;;;5.32;2.60;;;;;;;2.68;93.94;93535.53;4859981;29;20041;-77
2024/02/01 02:40:21;;;;;;;5.65;2.25;;;;;;;2.66;93.99;93535.75;4860135;29;20048;-77
2024/02/01 02:42:48;;;;;;;4.03;2.30;;;;;;;2.61;94.32;93530.41;4860449;29;20038;-77
2024/02/01 02:45:13;;;;;;;5.53;2.63;;;;;;;2.62;94.12;93524.22;4860364;29;20048;-78
2024/02/01 02:47:39;;;;;;;7.97;2.35;;;;;;;2.61;94.15;93520.06;4859911;29;20033;-77
2024/02/01 02:50:06;;;;;;;7.47;2.13;;;;;;;2.63;93.76;93520.63;4843331;29;20052;-77
2024/02/01 02:52:36;;;;;;;3.92;2.15;;;;;;;2.65;93.79;93523.81;4859422;29;20030;-78
2024/02/01 02:55:02;;;;;;;4.68;2.10;;;;;;;2.67;93.62;93524.38;4859512;29;20076;-78
2024/02/01 02:57:28;;;;;;;5.13;2.55;;;;;;;2.71;92.90;93517.78;4842912;29;20033;-78
2024/02/01 02:59:53;;;;;;;4.70;2.13;;;;;;;2.74;93.01;93508.81;4858894;29;20418;-78
2024/02/01 03:02:19;;;;;;;4.20;1.90;;;;;;;2.76;94.30;93506.03;4859575;29;20026;-78
2024/02/01 03:04:44;;;;;;;5.68;3.13;;;;;;;2.74;94.73;93505.44;4859548;29;20041;-76
2024/02/01 03:07:10;;;;;;;6.88;3.28;;;;;;;2.67;95.35;93508.88;4842881;29;20052;-77
2024/02/01 03:09:35;;;;;;;4.72;2.83;;;;;;;2.66;94.93;93520.22;4842818;29;20502;-78
2024/02/01 03:12:06;;;;;;;4.85;2.35;;;;;;;2.65;94.49;93518.63;4858465;29;20105;-78
2024/02/01 03:14:40;;;;;;;4.35;1.80;;;;;;;2.67;95.46;93506.28;4841853;29;20628;-78
2024/02/01 03:17:08;;;;;;;4.63;1.80;;;;;;;2.69;95.15;93500.91;4858046;29;20044;-77
2024/02/01 03:19:41;;;;;;;3.95;1.77;;;;;;;2.71;94.48;93498.91;4858644;29;20501;-77
2024/02/01 03:22:06;;;;;;;3.65;1.90;;;;;;;2.75;93.54;93501.84;4858829;29;20061;-77
2024/02/01 03:24:32;;;;;;;3.35;2.03;;;;;;;2.74;93.85;93497.69;4842535;29;20514;-78
2024/02/01 03:26:58;;;;;;;2.70;1.65;;;;;;;2.80;93.32;93510.56;4858628;29;20048;-76
2024/02/01 03:29:24;;;;;;;3.58;1.88;;;;;;;2.79;93.25;93498.66;4858887;29;20081;-77
2024/02/01 03:31:50;;;;;;;3.58;1.70;;;;;;;2.80;93.40;93495.03;4858487;29;20101;-77
2024/02/01 03:34:20;;;;;;;3.90;1.83;;;;;;;2.80;93.24;93495.03;4841880;29;20052;-78
2024/02/01 03:36:50;;;;;;;3.20;1.77;;;;;;;2.76;93.88;93487.94;4858263;29;20132;-77
2024/02/01 03:39:25;;;;;;;4.30;1.80;;;;;;;2.79;93.63;93492.66;4858198;29;20075;-78
2024/02/01 03:41:53;;;;;;;2.90;1.70;;;;;;;2.85;93.40;93482.25;4858349;29;20061;-77
2024/02/01 03:44:18;;;;;;;3.42;1.90;;;;;;;2.88;92.66;93483.63;4841785;29;20244;-78
2024/02/01 03:46:44;;;;;;;2.95;1.75;;;;;;;2.89;92.11;93477.47;4858899;29;20112;-78
2024/02/01 03:49:10;;;;;;;3.95;1.63;;;;;;;2.89;92.50;93474.88;4842242;29;20124;-78
2024/02/01 03:51:36;;;;;;;3.60;1.80;;;;;;;2.89;92.54;93485.22;4858426;29;20120;-77
2024/02/01 03:54:11;;;;;;;3.78;1.48;;;;;;;2.88;93.55;93481.03;4858568;29;20479;-77
2024/02/01 03:56:37;;;;;;;3.92;1.50;;;;;;;2.91;92.81;93480.63;4842516;29;20501;-77
2024/02/01 03:59:03;;;;;;;3.25;1.55;;;;;;;2.95;92.66;93476.59;4859152;29;20045;-76
2024/02/01 04:01:32;;;;;;;3.33;1.48;;;;;;;2.99;92.56;93472.56;4841692;29;20041;-78
2024/02/01 04:03:58;;;;;;;4.25;1.42;;;;;;;2.99;92.60;93472.56;4858825;29;20036;-77
2024/02/01 04:06:25;;;;;;;2.20;1.27;;;;;;;3.01;92.97;93469.78;4842214;29;20050;-77
2024/02/01 04:08:51;;;;;;;4.05;1.55;;;;;;;3.00;93.03;93466.41;4858833;29;20386;-77
2024/02/01 04:11:17;;;;;;;4.22;1.60;;;;;;;3.01;92.55;93462.00;4843382;29;20061;-76
2024/02/01 04:13:43;;;;;;;2.28;1.27;;;;;;;3.00;92.76;93463.81;4823329;29;20486;-77
2024/02/01 04:16:09;;;;;;;3.22;1.60;;;;;;;3.00;92.04;93458.63;4839336;29;20069;-77
2024/02/01 04:18:35;;;;;;;2.95;1.40;;;;;;;3.04;91.09;93454.63;4823622;29;20034;-76
2024/02/01 04:21:01;;;;;;;2.40;1.20;;;;;;;3.10;90.03;93453.75;4839555;29;20066;-77
2024/02/01 04:23:29;;;;;;;5.15;1.42;;;;;;;3.13;89.33;93457.72;4822527;29;20506;-77
2024/02/01 04:25:55;;;;;;;2.47;1.08;;;;;;;3.19;88.92;93456.03;4822712;29;20463;-77
2024/02/01 04:28:21;;;;;;;3.22;1.48;;;;;;;3.19;89.30;93459.41;4839783;29;20542;-78
2024/02/01 04:30:50;;;;;;;3.20;1.55;;;;;;;3.22;90.13;93465.94;4839259;29;20049;-77
2024/02/01 04:33:22;;;;;;;4.43;1.33;;;;;;;3.19;90.11;93454.25;4839745;29;20133;-77
2024/02/01 04:35:48;;;;;;;1.92;1.17;;;;;;;3.21;89.23;93460.00;4839307;29;20475;-77
2024/02/01 04:38:14;;;;;;;3.17;1.38;;;;;;;3.27;88.94;93453.16;4839422;29;20044;-77
2024/02/01 04:40:39;;;;;;;3.88;1.70;;;;;;;3.38;88.02;93459.41;4839446;29;20227;-78
2024/02/01 04:43:05;;;;;;;5.10;1.65;;;;;;;3.47;87.10;93458.13;4823170;29;20030;-77
2024/02/01 04:45:34;;;;;;;2.88;1.60;;;;;;;3.49;87.23;93462.06;4839291;29;20542;-78
2024/02/01 04:48:00;;;;;;;3.70;1.75;;;;;;;3.51;87.45;93454.06;4822927;29;20054;-77
2024/02/01 04:50:26;;;;;;;4.60;1.77;;;;;;;3.47;87.27;93447.75;4839617;29;20585;-78
2024/02/01 04:52:52;;;;;;;3.50;1.63;;;;;;;3.43;88.02;93452.56;4823403;29;20030;-77
2024/02/01 04:55:21;;;;;;;3.38;1.60;;;;;;;3.39;88.72;93446.25;4839244;29;20122;-77
2024/02/01 04:57:46;;;;;;;2.80;1.48;;;;;;;3.32;89.44;93450.72;4822809;29;20034;-78
2024/02/01 05:00:17;;;;;;;3.22;1.55;;;;;;;3.29;89.71;93456.34;4823087;29;20045;-78
2024/02/01 05:02:47;;;;;;;4.35;1.70;;;;;;;3.26;89.92;93446.41;4839126;29;20057;-78
2024/02/01 05:05:14;;;;;;;3.60;1.42;;;;;;;3.27;89.98;93448.78;4838924;29;20036;-78
2024/02/01 05:07:41;;;;;;;7.22;1.60;;;;;;;3.29;89.15;93436.41;4839267;29;20418;-78
2024/02/01 05:10:08;;;;;;;3.00;1.50;;;;;;;3.31;88.95;93441.34;4838961;29;20050;-78
2024/02/01 05:12:37;;;;;;;6.95;1.90;;;;;;;3.32;89.28;93442.94;4823414;29;20045;-77
2024/02/01 05:15:09;;;;;;;4.10;2.15;;;;;;;3.34;87.94;93436.53;4839252;29;20128;-77
2024/02/01 05:17:39;;;;;;;;;;;;;;;3.39;87.90;93441.06;4822928;29;20048;-77
2024/02/01 05:20:09;;;;;;;3.53;1.80;;;;;;;3.38;87.50;93434.31;4838531;29;19920;-77
2024/02/01 05:22:36;;;;;;;3.67;1.77;;;;;;;3.43;87.35;93431.88;4822286;29;20112;-76
2024/02/01 05:25:19;;;;;;;4.05;1.70;;;;;;;3.45;87.56;93435.03;4822515;29;20141;-78
2024/02/01 05:27:50;;;;;;;3.50;1.33;;;;;;;3.44;87.26;93437.81;4823634;29;20089;-77
2024/02/01 05:30:17;;;;;;;2.83;1.55;;;;;;;3.45;87.07;93444.59;4840211;29;20053;-78
2024/02/01 05:32:51;;;;;;;5.30;1.75;;;;;;;3.48;86.87;93450.13;4809036;29;20337;-78
2024/02/01 05:35:37;;;;;;;3.72;1.60;;;;;;;3.55;85.97;93440.47;4839072;29;20388;-77
2024/02/01 05:38:05;;;;;;;2.58;1.33;;;;;;;3.57;86.18;93439.47;4838731;29;20064;-77
2024/02/01 05:40:32;;;;;;;2.53;1.38;;;;;;;3.61;84.75;93443.97;4826939;29;20026;-77
2024/02/01 05:43:01;;;;;;;4.75;1.50;;;;;;;3.70;83.83;93453.03;4840488;29;20065;-79
2024/02/01 05:45:27;;;;;;;3.75;1.20;;;;;;;3.73;83.30;93446.59;4845927;29;20355;-79
2024/02/01 05:47:57;;;;;;;4.65;1.40;;;;;;;3.80;83.44;93460.25;4827980;29;20040;-80
2024/02/01 05:50:22;;;;;;;3.47;1.30;;;;;;;3.79;84.08;93461.28;4842120;29;20102;-77
2024/02/01 05:52:48;;;;;;;3.03;1.30;;;;;;;3.84;82.52;93452.84;4840561;29;20046;-79
2024/02/01 05:55:14;;;;;;;5.30;1.55;;;;;;;3.84;83.30;93453.63;4799501;29;20136;-79
2024/02/01 05:57:41;;;;;;;3.05;1.35;;;;;;;3.89;82.32;93456.34;4844162;29;20289;-78
2024/02/01 06:00:09;;;;;;;3.58;1.30;;;;;;;3.92;81.94;93460.31;4843296;29;20069;-79
2024/02/01 06:02:36;;;;;;;3.38;1.20;;;;;;;3.94;81.83;93450.50;4845135;29;20041;-78
2024/02/01 06:05:01;;;;;;;2.17;1.23;;;;;;;3.99;81.51;93449.84;4843055;29;20072;-78
2024/02/01 06:07:27;;;;;;;6.50;4.50;;;;;;;4.15;78.66;93444.03;4827912;29;20074;-78
2024/02/01 06:09:53;;;;;;;4.35;1.55;;;;;;;4.27;78.83;93436.25;4845368;29;20037;-78
2024/02/01 06:12:18;;;;;;;2.13;0.95;;;;;;;4.35;76.22;93434.13;4846432;29;20124;-80
2024/02/01 06:14:44;;;;;;;7.50;1.63;;;;;;;4.37;75.53;93436.50;4830005;29;20728;-80
2024/02/01 06:17:10;;;;;;;2.33;1.10;;;;;;;4.34;76.12;93432.53;4830089;29;20124;-77
2024/02/01 06:19:35;;;;;;;2.50;1.08;;;;;;;4.32;76.54;93434.59;4846206;29;20037;-80
2024/02/01 06:22:05;;;;;;;3.35;1.23;;;;;;;4.31;76.70;93433.00;4829459;29;20125;-79
2024/02/01 06:24:34;;;;;;;3.00;1.13;;;;;;;4.35;76.39;93434.13;4843152;29;20038;-78
2024/02/01 06:27:01;;;;;;;2.70;1.10;;;;;;;4.38;75.62;93433.69;4827104;29;20046;-78
2024/02/01 06:29:27;;;;;;;2.70;1.20;;;;;;;4.47;74.71;93435.94;4827085;29;20045;-79
2024/02/01 06:31:52;;;;;;;2.42;1.10;;;;;;;4.58;72.76;93419.59;4826811;29;20031;-78
2024/02/01 06:34:26;;;;;;;5.35;1.40;;;;;;;4.78;71.29;93425.22;4829547;29;20105;-79
2024/02/01 06:36:58;;;;;;;2.67;1.20;;;;;;;4.98;70.90;93424.09;4830838;29;20446;-79
2024/02/01 06:42:13;;;;;;;9.68;1.35;;;;;;;5.09;73.05;93425.06;4853912;29;20498;-79
2024/02/01 06:44:48;;;;;;;3.88;1.50;;;;;;;5.11;73.09;93430.81;4826864;29;20562;-81
2024/02/01 06:47:23;;;;;;;4.15;1.70;;;;;;;5.01;73.42;93441.78;4824089;29;20038;-78
2024/02/01 06:50:09;;;;;;;2.20;1.20;;;;;;;4.93;74.07;93434.34;4842101;29;20155;-77
2024/02/01 06:52:43;;;;;;;3.05;1.30;;;;;;;4.93;73.93;93422.19;4833800;29;20077;-78
2024/02/01 07:00:51;;;;;;;3.20;1.40;;;;;;;4.90;72.45;93433.00;4841173;29;20096;-77
2024/02/01 07:08:45;;;;;;;5.07;1.40;;;;;;;5.10;72.06;93427.44;4809476;29;20060;-77
2024/02/01 07:16:35;;;;;;;3.10;1.38;;;;;;;5.22;70.69;93437.78;4840382;29;20042;-80
2024/02/01 07:19:23;;;;;;;3.05;1.30;;;;;;;5.22;70.16;93420.44;4840374;29;20507;-78
2024/02/01 07:57:36;;;;;;;4.20;1.30;;;;;;;5.18;73.90;93406.31;4832423;29;20045;-78
2024/02/01 08:00:04;;;;;;;4.28;1.30;;;;;;;5.22;72.25;93401.44;4839684;29;20038;-77
2024/02/01 08:02:50;;;;;;;2.45;1.27;;;;;;;5.24;71.57;93404.59;4839058;29;20025;-78
2024/02/01 08:08:01;;;;;;;2.63;1.60;;;;;;;5.25;73.40;93403.59;4825998;29;20053;-76
2024/02/01 08:10:27;;;;;;;2.38;1.20;;;;;;;5.24;74.75;93396.03;4809204;29;20531;-77
2024/02/01 08:12:55;;;;;;;3.47;1.45;;;;;;;5.24;75.30;93399.41;4839844;29;20062;-77
2024/02/01 08:15:21;;;;;;;4.30;1.35;;;;;;;5.26;76.02;93402.56;4805296;29;20042;-77
2024/02/01 08:17:51;;;;;;;8.93;1.38;;;;;;;5.27;74.99;93398.97;4821627;29;20042;-77
2024/02/01 08:20:19;;;;;;;3.22;1.13;;;;;;;5.31;74.11;93404.47;4839362;29;20066;-77
2024/02/01 08:22:45;;;;;;;4.53;1.33;;;;;;;5.35;73.96;93403.78;4822993;29;20026;-78
2024/02/01 08:25:12;;;;;;;5.05;2.25;;;;;;;5.41;74.01;93397.66;4839134;29;20077;-77
2024/02/01 08:27:49;;;;;;;5.47;2.08;;;;;;;5.49;75.13;93399.09;4839736;29;20030;-77
2024/02/01 08:30:18;;;;;;;4.82;2.10;;;;;;;5.55;75.11;93395.56;4839861;29;20041;-78
2024/02/01 08:32:44;;;;;;;6.85;2.80;;;;;;;5.63;74.90;93397.81;4839240;29;20026;-78
2024/02/01 08:35:12;;;;;;;5.43;2.60;;;;;;;5.73;74.31;93401.59;4839263;29;20129;-76
2024/02/01 08:37:41;;;;;;;7.03;2.00;;;;;;;5.75;73.65;93395.16;4840136;29;20368;-76
2024/02/01 08:40:20;;;;;;;5.75;1.80;;;;;;;5.89;73.38;93400.84;4830453;29;20149;-77
2024/02/01 08:42:50;;;;;;;3.55;1.92;;;;;;;5.96;73.31;93406.69;4804168;29;20720;-77
2024/02/01 08:45:17;;;;;;;5.18;1.80;;;;;;;6.02;74.11;93408.38;4821282;29;20097;-77
2024/02/01 08:47:45;;;;;;;7.07;1.95;;;;;;;6.05;73.59;93404.50;4839125;29;20063;-78
2024/02/01 08:50:12;;;;;;;6.00;1.50;;;;;;;6.09;73.35;93397.81;4822432;29;20072;-78
2024/02/01 08:52:48;;;;;;;3.17;1.20;;;;;;;6.15;70.41;93393.50;4839269;29;20041;-77
2024/02/01 08:55:15;;;;;;;2.22;1.10;;;;;;;6.29;64.60;93401.78;4839089;29;20184;-78
2024/02/01 08:57:41;;;;;;;7.18;1.27;;;;;;;6.36;65.29;93386.78;4825950;29;20066;-78
2024/02/01 09:00:26;;;;;;;4.75;1.20;;;;;;;6.47;65.29;93380.72;4820822;29;20544;-77
2024/02/01 09:03:03;;;;;;;1.67;1.17;;;;;;;6.51;65.22;93365.41;4803797;29;20038;-78
2024/02/01 09:05:47;;;;;;;4.13;1.58;;;;;;;6.51;65.89;93361.00;4804385;29;20043;-78
2024/02/01 09:08:14;;;;;;;2.85;1.60;;;;;;;6.49;67.08;93346.66;4821054;29;20063;-78
2024/02/01 09:10:50;;;;;;;6.15;1.60;;;;;;;6.55;68.96;93337.88;4822313;29;20042;-77
2024/02/01 09:13:18;;;;;;;5.50;1.67;;;;;;;6.53;70.42;93326.94;4839543;29;20050;-77
2024/02/01 09:15:43;;;;;;;4.90;1.48;;;;;;;6.52;70.97;93315.75;4822274;29;20050;-78
2024/02/01 09:18:09;;;;;;;9.13;1.55;;;;;;;6.55;70.02;93310.09;4807620;29;20525;-78
2024/02/01 09:20:34;;;;;;;3.40;1.45;;;;;;;6.57;69.72;93318.41;4838945;29;20034;-77
2024/02/01 09:23:00;;;;;;;7.20;1.63;;;;;;;6.59;70.30;93328.56;4839207;29;20038;-77
2024/02/01 09:25:25;;;;;;;4.60;1.70;;;;;;;6.62;71.99;93338.50;4838676;29;20049;-78
2024/02/01 09:27:53;;;;;;;5.00;1.40;;;;;;;6.64;71.42;93339.84;4838656;29;20076;-78
2024/02/01 09:30:22;;;;;;;3.55;1.45;;;;;;;6.68;69.40;93340.13;4838941;29;20512;-77
2024/02/01 09:32:53;;;;;;;4.15;1.40;;;;;;;6.72;68.34;93335.25;4839205;29;20038;-76
2024/02/01 09:35:21;;;;;;;2.70;1.42;;;;;;;6.76;66.62;93336.34;4838987;29;20046;-78
2024/02/01 09:37:53;;;;;;;5.53;1.55;;;;;;;6.74;66.86;93328.78;4823852;29;20411;-78
2024/02/01 09:40:22;;;;;;;;;;;;;;;6.76;67.72;93341.56;4814227;29;20121;-78
2024/02/01 09:42:50;;;;;;;3.05;1.60;;;;;;;6.75;68.10;93337.38;4805325;29;19916;-78
2024/02/01 09:45:20;;;;;;;4.07;1.60;;;;;;;6.74;68.80;93352.19;4821561;29;20391;-79
2024/02/01 09:47:48;;;;;;;3.55;1.50;;;;;;;6.75;64.52;93358.97;4820626;29;20418;-79
2024/02/01 09:50:18;;;;;;;3.08;1.40;;;;;;;6.77;65.56;93369.94;4805568;29;20065;-79
2024/02/01 09:52:44;;;;;;;3.95;1.52;;;;;;;6.97;64.37;93376.44;4821696;29;20145;-79
2024/02/01 09:55:18;;;;;;;6.95;1.73;;;;;;;6.91;65.95;93374.78;4805753;29;20559;-79
2024/02/01 09:57:45;;;;;;;4.40;1.63;;;;;;;6.90;66.76;93373.22;4806998;29;20049;-79
2024/02/01 10:00:22;;;;;;;2.88;1.30;;;;;;;6.90;67.27;93375.81;4805757;29;20112;-79
2024/02/01 10:02:53;;;;;;;4.20;1.67;;;;;;;6.96;65.31;93367.03;4821519;29;20054;-79
2024/02/01 10:05:28;;;;;;;4.50;2.15;;;;;;;7.06;62.45;93373.16;4821621;29;20035;-77
2024/02/01 10:07:56;;;;;;;5.82;2.70;;;;;;;7.24;61.47;93371.28;4821628;29;20046;-79
2024/02/01 10:10:22;;;;;;;5.80;1.98;;;;;;;7.29;62.01;93379.13;4805134;29;20115;-76
2024/02/01 10:12:47;;;;;;;3.90;1.70;;;;;;;7.27;57.23;93368.97;4821363;29;20522;-80
2024/02/01 10:15:19;;;;;;;2.45;1.33;;;;;;;7.37;59.13;93373.50;4804954;29;20083;-79
2024/02/01 10:17:51;;;;;;;4.88;1.60;;;;;;;7.43;60.82;93366.53;4834409;29;20038;-79
2024/02/01 10:20:39;;;;;;;3.38;1.23;;;;;;;7.45;60.66;93354.84;4839862;29;20448;-78
2024/02/01 10:23:10;;;;;;;3.17;1.20;;;;;;;7.51;61.29;93359.06;4824198;29;20396;-79
2024/02/01 10:25:44;;;;;;;5.78;2.17;;;;;;;7.57;62.67;93357.31;4824110;29;20045;-79
2024/02/01 10:28:14;;;;;;;5.78;3.38;;;;;;;7.78;53.46;93358.28;4826099;29;20042;-78
2024/02/01 10:30:41;;;;;;;3.78;2.42;;;;;;;7.84;57.36;93361.72;4826714;29;20094;-79
2024/02/01 10:33:09;;;;;;;3.55;1.55;;;;;;;7.99;53.98;93354.00;4842697;29;20326;-78
2024/02/01 10:35:36;;;;;;;7.10;2.20;;;;;;;8.09;55.10;93350.72;4842876;29;20046;-79
2024/02/01 10:38:13;;;;;;;4.03;1.60;;;;;;;8.15;57.04;93344.50;4842588;29;20038;-78
2024/02/01 10:41:10;;;;;;;3.97;1.70;;;;;;;8.21;57.89;93346.09;4842569;29;20094;-78
2024/02/01 10:43:41;;;;;;;4.18;1.98;;;;;;;8.29;57.89;93331.84;4843218;29;20073;-79
2024/02/01 10:46:08;;;;;;;3.65;1.42;;;;;;;8.38;57.82;93335.53;4843602;29;20057;-79
2024/02/01 10:48:52;;;;;;;4.53;1.77;;;;;;;8.48;59.36;93330.41;4842803;29;20073;-78
2024/02/01 10:51:18;;;;;;;3.15;1.23;;;;;;;8.54;59.94;93333.84;4841790;29;20399;-78
2024/02/01 10:53:47;;;;;;;3.75;1.63;;;;;;;8.55;60.16;93336.19;4825851;29;20046;-78
2024/02/01 10:56:15;;;;;;;6.53;1.98;;;;;;;8.61;60.43;93334.41;4842427;29;20481;-78
2024/02/01 10:58:51;;;;;;;4.30;1.30;;;;;;;8.71;60.32;93324.03;4825637;29;20030;-78
2024/02/01 11:01:18;;;;;;;2.38;1.30;;;;;;;9.33;61.21;93335.47;4824530;29;20503;-78
2024/02/01 11:03:51;;;;;;;3.88;1.48;;;;;;;10.39;55.65;93319.38;4824299;29;20503;-78
2024/02/01 11:06:18;;;;;;;5.18;1.30;;;;;;;11.02;51.69;93327.59;4833899;29;20075;-78
2024/02/01 11:08:52;;;;;;;3.95;1.67;;;;;;;11.01;49.57;93330.47;4841339;29;20471;-77
2024/02/01 11:11:38;;;;;;;4.25;1.90;;;;;;;10.75;52.57;93322.72;4826887;29;20629;-78
2024/02/01 11:14:12;;;;;;;4.65;1.80;;;;;;;10.47;50.06;93326.72;4805907;29;20141;-78
2024/02/01 11:16:40;;;;;;;4.03;1.80;;;;;;;10.34;51.95;93327.25;4811327;29;20050;-78
2024/02/01 11:19:13;;;;;;;2.78;1.38;;;;;;;10.25;49.33;93326.97;4815401;29;20137;-79
2024/02/01 11:22:06;;;;;;;4.95;1.65;;;;;;;10.10;54.85;93317.28;4822520;29;20038;-79
2024/02/01 11:24:35;;;;;;;3.38;1.45;;;;;;;9.91;53.57;93314.41;4809940;29;20042;-78
2024/02/01 11:27:24;;;;;;;3.63;1.35;;;;;;;10.41;51.37;93306.81;4839434;29;20041;-78
2024/02/01 11:29:55;;;;;;;2.65;1.33;;;;;;;10.93;46.72;93302.22;4839674;29;20507;-78
2024/02/01 11:32:21;;;;;;;4.10;1.55;;;;;;;11.15;47.84;93299.25;4832229;29;20057;-78
2024/02/01 11:34:58;;;;;;;4.53;1.38;;;;;;;11.73;45.77;93303.91;4836008;29;20504;-77
2024/02/01 11:37:24;;;;;;;2.13;1.40;;;;;;;12.07;45.57;93306.59;4840495;29;20503;-78
2024/02/01 11:39:51;;;;;;;4.13;1.58;;;;;;;12.35;46.38;93312.13;4820115;29;20062;-77
2024/02/01 11:42:21;;;;;;;4.57;1.63;;;;;;;13.08;46.00;93298.75;4825773;29;20022;-79
2024/02/01 11:44:48;;;;;;;8.48;1.52;;;;;;;13.69;44.04;93291.13;4841487;29;20064;-79
2024/02/01 11:47:14;;;;;;;4.75;1.50;;;;;;;14.22;43.13;93290.84;4840044;29;20101;-79
2024/02/01 11:49:41;;;;;;;2.03;1.05;;;;;;;14.66;37.28;93289.63;4811353;29;20049;-78
2024/02/01 11:52:16;;;;;;;2.17;0.85;;;;;;;15.09;36.52;93286.69;4843230;29;20045;-77
2024/02/01 11:55:00;;;;;;;2.45;1.10;;;;;;;15.47;34.45;93273.25;4831642;29;20073;-78
2024/02/01 11:57:26;;;;;;;3.17;1.30;;;;;;;15.91;33.00;93269.13;4834404;29;20071;-78
2024/02/01 11:59:56;;;;;;;5.07;1.50;;;;;;;15.18;30.50;93274.38;4826034;29;20085;-78
2024/02/01 12:02:24;;;;;;;4.32;1.65;;;;;;;14.68;34.79;93262.97;4838068;29;20069;-79
2024/02/01 12:04:51;;;;;;;6.25;1.75;;;;;;;14.35;35.76;93263.00;4822942;29;20450;-77
2024/02/01 12:07:18;;;;;;;5.13;1.73;;;;;;;14.14;36.19;93258.09;4839819;29;20096;-77
2024/02/01 12:09:48;;;;;;;6.07;2.00;;;;;;;14.45;35.01;93257.53;4845371;29;20329;-78
2024/02/01 12:12:23;;;;;;;8.30;1.77;;;;;;;14.50;34.37;93241.66;4839973;29;20666;-78
2024/02/01 12:14:50;;;;;;;4.85;1.90;;;;;;;14.33;35.39;93250.13;4827607;29;20037;-76
2024/02/01 12:17:24;;;;;;;4.90;1.60;;;;;;;14.50;35.73;93244.28;4825761;29;20045;-78
2024/02/01 12:19:52;;;;;;;14.50;5.28;;;;;;;14.43;35.31;93256.28;4826604;29;20106;-80
2024/02/01 12:22:21;;;;;;;2.95;1.40;;;;;;;14.73;31.27;93258.38;4816752;29;20031;-79
2024/02/01 12:24:46;;;;;;;5.25;2.47;;;;;;;15.41;32.19;93248.06;4840400;29;20030;-80
2024/02/01 12:27:13;;;;;;;4.45;1.98;;;;;;;15.65;31.08;93239.88;4840418;29;20049;-76
2024/02/01 12:29:38;;;;;;;4.47;2.28;;;;;;;16.24;31.14;93231.91;4834069;29;20058;-80
2024/02/01 12:32:11;;;;;;;6.15;2.78;;;;;;;16.32;34.71;93240.97;4832855;29;20041;-77
2024/02/01 12:34:39;;;;;;;5.15;2.70;;;;;;;16.08;30.58;93231.50;4840774;29;20062;-78
2024/02/01 12:37:07;;;;;;;4.47;1.92;;;;;;;16.08;31.26;93223.59;4840209;29;20446;-80
2024/02/01 12:39:36;;;;;;;5.57;3.00;;;;;;;16.06;29.90;93222.34;4831617;29;20026;-78
2024/02/01 12:42:03;;;;;;;10.73;5.18;;;;;;;15.83;31.23;93211.78;4839404;29;20053;-78
2024/02/01 12:44:34;;;;;;;7.20;2.80;;;;;;;15.66;32.96;93219.56;4836419;29;20452;-79
2024/02/01 12:47:00;;;;;;;4.55;2.17;;;;;;;15.36;33.98;93221.81;4836138;29;20049;-78